createdAt,value
2019-01-15T00:02:19.430Z,101929.66
2019-01-15T00:04:48.223Z,101926.91
2019-01-15T00:07:17.015Z,101929.67
2019-01-15T00:09:45.819Z,101930.39
2019-01-15T00:12:14.641Z,101932.59
2019-01-15T00:14:43.440Z,101933.31
2019-01-15T00:17:12.243Z,101931.52
2019-01-15T00:19:41.038Z,101933.33
2019-01-15T00:22:09.815Z,101938.27
2019-01-15T00:24:38.656Z,101935.89
2019-01-15T00:27:07.427Z,101936.09
2019-01-15T00:29:36.791Z,101928.44
2019-01-15T00:32:05.578Z,101927.88
2019-01-15T00:34:34.579Z,101925.52
2019-01-15T00:37:03.400Z,101932.97
2019-01-15T00:39:32.209Z,101935.88
2019-01-15T00:42:01.013Z,101933.87
2019-01-15T00:44:29.797Z,101930.39
2019-01-15T00:46:58.598Z,101915.98
2019-01-15T00:49:27.402Z,101909.94
2019-01-15T00:51:56.194Z,101909.72
2019-01-15T00:54:24.981Z,101904.78
2019-01-15T00:56:53.765Z,101909.52
2019-01-15T00:59:22.619Z,101907.86
2019-01-15T01:01:51.411Z,101908.75
2019-01-15T01:04:20.254Z,101913.84
2019-01-15T01:06:49.080Z,101923.49
2019-01-15T01:09:17.931Z,101925.84
2019-01-15T01:11:46.772Z,101926.73
2019-01-15T01:14:15.632Z,101920.69
2019-01-15T01:16:44.451Z,101924.14
2019-01-15T01:19:13.298Z,101930.72
2019-01-15T01:21:42.119Z,101936.17
2019-01-15T01:24:10.968Z,101945.27
2019-01-15T01:26:39.779Z,101948.35
2019-01-15T01:29:08.601Z,101943.03
2019-01-15T01:31:37.435Z,101939.95
2019-01-15T01:34:06.281Z,101945.57
2019-01-15T01:36:35.066Z,101949.38
2019-01-15T01:39:05.428Z,101938.44
2019-01-15T01:41:34.230Z,101921.66
2019-01-15T01:44:03.103Z,101913.41
2019-01-15T01:46:31.960Z,101906.30
2019-01-15T01:49:00.759Z,101906.45
2019-01-15T01:51:29.542Z,101914.30
2019-01-15T01:53:58.328Z,101905.15
2019-01-15T01:56:27.115Z,101898.59
2019-01-15T01:58:55.990Z,101889.06
2019-01-15T02:01:24.851Z,101895.45
2019-01-15T02:03:53.653Z,101910.94
2019-01-15T02:06:22.452Z,101907.10
2019-01-15T02:08:51.321Z,101904.03
2019-01-15T02:11:20.127Z,101897.09
2019-01-15T02:13:48.920Z,101900.74
2019-01-15T02:16:17.726Z,101902.95
2019-01-15T02:18:46.546Z,101894.80
2019-01-15T02:21:15.383Z,101898.47
2019-01-15T02:23:44.188Z,101904.69
2019-01-15T02:26:13.076Z,101893.77
2019-01-15T02:28:48.346Z,101887.59
2019-01-15T02:31:17.129Z,101885.41
2019-01-15T02:33:45.920Z,101886.83
2019-01-15T02:36:14.682Z,101886.30
2019-01-15T02:38:43.462Z,101884.08
2019-01-15T02:41:12.238Z,101872.92
2019-01-15T02:43:41.022Z,101876.54
2019-01-15T02:46:09.818Z,101869.42
2019-01-15T02:48:38.603Z,101873.26
2019-01-15T02:51:07.431Z,101874.17
2019-01-15T02:53:36.278Z,101876.94
2019-01-15T02:56:05.049Z,101874.01
2019-01-15T02:58:33.897Z,101876.78
2019-01-15T03:01:02.684Z,101878.99
2019-01-15T03:03:31.558Z,101880.08
2019-01-15T03:06:00.343Z,101881.57
2019-01-15T03:08:29.198Z,101876.12
2019-01-15T03:10:58.045Z,101885.06
2019-01-15T03:13:26.932Z,101878.13
2019-01-15T03:16:02.506Z,101875.02
2019-01-15T03:18:31.298Z,101869.39
2019-01-15T03:21:00.055Z,101861.91
2019-01-15T03:23:28.858Z,101864.83
2019-01-15T03:25:57.629Z,101852.08
2019-01-15T03:28:26.463Z,101850.28
2019-01-15T03:30:55.240Z,101850.45
2019-01-15T03:33:24.092Z,101845.35
2019-01-15T03:35:52.961Z,101839.33
2019-01-15T03:38:21.883Z,101833.86
2019-01-15T03:40:50.672Z,101836.23
2019-01-15T03:43:19.481Z,101829.09
2019-01-15T03:45:48.265Z,101825.08
2019-01-15T03:48:23.376Z,101821.95
2019-01-15T03:50:52.172Z,101829.04
2019-01-15T03:53:21.031Z,101830.66
2019-01-15T03:55:49.835Z,101824.81
2019-01-15T03:58:18.623Z,101818.43
2019-01-15T04:00:47.688Z,101816.06
2019-01-15T04:03:16.489Z,101822.59
2019-01-15T04:05:45.266Z,101816.03
2019-01-15T04:08:14.051Z,101808.70
2019-01-15T04:10:42.838Z,101808.83
2019-01-15T04:13:11.704Z,101813.88
2019-01-15T04:15:40.418Z,101806.70
2019-01-15T04:18:09.223Z,101789.48
2019-01-15T04:20:38.025Z,101790.17
2019-01-15T04:23:06.812Z,101784.45
2019-01-15T04:25:37.269Z,101779.98
2019-01-15T04:28:04.443Z,101777.39
2019-01-15T04:30:33.374Z,101777.54
2019-01-15T04:33:02.164Z,101786.97
2019-01-15T04:35:31.012Z,101792.04
2019-01-15T04:37:59.813Z,101796.39
2019-01-15T04:40:28.612Z,101796.53
2019-01-15T04:42:57.444Z,101802.66
2019-01-15T04:45:26.231Z,101798.75
2019-01-15T04:47:55.003Z,101797.97
2019-01-15T04:50:23.815Z,101798.44
2019-01-15T04:52:57.154Z,101805.56
2019-01-15T04:55:26.998Z,101799.27
2019-01-15T04:57:56.050Z,101800.50
2019-01-15T05:00:24.877Z,101791.50
2019-01-15T05:02:54.101Z,101783.27
2019-01-15T05:05:22.896Z,101782.13
2019-01-15T05:07:51.672Z,101768.79
2019-01-15T05:10:20.467Z,101771.34
2019-01-15T05:12:49.283Z,101764.44
2019-01-15T05:15:18.072Z,101767.41
2019-01-15T05:17:46.870Z,101758.50
2019-01-15T05:20:16.170Z,101754.70
2019-01-15T05:22:45.060Z,101744.30
2019-01-15T05:25:17.792Z,101737.39
2019-01-15T05:27:46.571Z,101730.45
2019-01-15T05:30:17.917Z,101734.06
2019-01-15T05:32:46.767Z,101732.17
2019-01-15T05:35:15.658Z,101733.73
2019-01-15T05:37:44.453Z,101737.47
2019-01-15T05:40:13.243Z,101730.97
2019-01-15T05:42:42.033Z,101730.47
2019-01-15T05:45:12.737Z,101722.36
2019-01-15T05:47:41.511Z,101718.78
2019-01-15T05:50:11.588Z,101713.78
2019-01-15T05:52:40.375Z,101712.22
2019-01-15T05:55:09.200Z,101718.20
2019-01-15T05:57:38.104Z,101715.38
2019-01-15T06:00:06.899Z,101712.22
2019-01-15T06:02:35.678Z,101717.05
2019-01-15T06:05:05.361Z,101709.11
2019-01-15T06:07:34.156Z,101704.98
2019-01-15T06:10:02.974Z,101699.97
2019-01-15T06:12:31.820Z,101699.53
2019-01-15T06:15:00.600Z,101697.28
2019-01-15T06:17:29.402Z,101692.45
2019-01-15T06:19:59.216Z,101695.33
2019-01-15T06:22:27.995Z,101689.77
2019-01-15T06:24:56.788Z,101690.44
2019-01-15T06:27:25.603Z,101689.47
2019-01-15T06:29:54.406Z,101696.55
2019-01-15T06:32:23.239Z,101701.11
2019-01-15T06:34:52.055Z,101701.04
2019-01-15T06:37:20.907Z,101700.80
2019-01-15T06:39:49.751Z,101705.87
2019-01-15T06:42:18.571Z,101713.50
2019-01-15T06:44:47.382Z,101711.41
2019-01-15T06:47:16.206Z,101720.31
2019-01-15T06:49:45.076Z,101732.83
2019-01-15T06:52:13.911Z,101728.91
2019-01-15T06:54:42.723Z,101712.34
2019-01-15T06:57:11.595Z,101701.84
2019-01-15T06:59:40.500Z,101698.53
2019-01-15T07:02:09.390Z,101700.94
2019-01-15T07:04:43.976Z,101693.23
2019-01-15T07:07:09.954Z,101690.67
2019-01-15T07:09:38.746Z,101683.14
2019-01-15T07:12:07.541Z,101685.34
2019-01-15T07:14:36.340Z,101686.25
2019-01-15T07:17:05.187Z,101678.02
2019-01-15T07:19:33.915Z,101671.73
2019-01-15T07:22:02.721Z,101670.98
2019-01-15T07:24:31.528Z,101675.38
2019-01-15T07:27:00.354Z,101680.13
2019-01-15T07:29:29.434Z,101680.50
2019-01-15T07:31:58.216Z,101678.84
2019-01-15T07:34:27.004Z,101677.94
2019-01-15T07:36:55.838Z,101678.48
2019-01-15T07:39:24.651Z,101670.70
2019-01-15T07:41:53.498Z,101660.20
2019-01-15T07:44:22.389Z,101659.66
2019-01-15T07:46:51.233Z,101659.66
2019-01-15T07:49:20.111Z,101658.01
2019-01-15T07:51:49.195Z,101660.20
2019-01-15T07:54:17.993Z,101663.61
2019-01-15T07:56:46.791Z,101663.16
2019-01-15T07:59:15.604Z,101666.69
2019-01-15T08:01:44.443Z,101668.06
2019-01-15T08:04:13.308Z,101674.53
2019-01-15T08:06:42.103Z,101675.73
2019-01-15T08:09:11.902Z,101675.28
2019-01-15T08:11:39.972Z,101679.43
2019-01-15T08:14:12.082Z,101674.75
2019-01-15T08:16:38.323Z,101678.82
2019-01-15T08:19:07.116Z,101671.41
2019-01-15T08:21:35.920Z,101676.84
2019-01-15T08:24:04.811Z,101674.44
2019-01-15T08:26:33.654Z,101678.95
2019-01-15T08:29:02.466Z,101675.18
2019-01-15T08:31:31.330Z,101667.14
2019-01-15T08:34:00.104Z,101674.06
2019-01-15T08:36:28.948Z,101665.19
2019-01-15T08:38:57.748Z,101664.51
2019-01-15T08:41:26.588Z,101670.13
2019-01-15T08:43:55.400Z,101675.25
2019-01-15T08:46:24.218Z,101668.11
2019-01-15T08:48:53.019Z,101675.73
2019-01-15T08:51:21.800Z,101676.92
2019-01-15T08:53:50.599Z,101680.53
2019-01-15T08:56:19.421Z,101672.98
2019-01-15T08:58:48.240Z,101676.95
2019-01-15T09:01:17.072Z,101672.09
2019-01-15T09:03:45.925Z,101672.41
2019-01-15T09:06:14.708Z,101672.16
2019-01-15T09:08:43.608Z,101678.53
2019-01-15T09:11:12.397Z,101674.83
2019-01-15T09:13:41.192Z,101672.92
2019-01-15T09:16:10.012Z,101674.64
2019-01-15T09:18:38.824Z,101670.28
2019-01-15T09:21:07.667Z,101672.81
2019-01-15T09:23:36.478Z,101669.41
2019-01-15T09:26:05.267Z,101668.99
2019-01-15T09:28:34.093Z,101670.20
2019-01-15T09:31:02.878Z,101664.63
2019-01-15T09:33:31.767Z,101660.56
2019-01-15T09:36:00.580Z,101655.73
2019-01-15T09:38:29.383Z,101652.04
2019-01-15T09:40:58.211Z,101651.02
2019-01-15T09:43:27.044Z,101644.63
2019-01-15T09:45:55.837Z,101651.07
2019-01-15T09:48:27.306Z,101644.41
2019-01-15T09:50:56.735Z,101641.03
2019-01-15T09:53:25.581Z,101643.87
2019-01-15T09:55:54.341Z,101643.66
2019-01-15T09:58:24.116Z,101635.66
2019-01-15T10:00:52.965Z,101634.75
2019-01-15T10:03:24.807Z,101638.13
2019-01-15T10:05:53.643Z,101635.12
2019-01-15T10:08:22.492Z,101627.55
2019-01-15T10:10:51.333Z,101627.17
2019-01-15T10:13:20.111Z,101626.19
2019-01-15T10:15:48.914Z,101627.48
2019-01-15T10:18:17.691Z,101635.47
2019-01-15T10:20:46.500Z,101629.06
2019-01-15T10:23:15.310Z,101636.03
2019-01-15T10:25:44.122Z,101632.31
2019-01-15T10:28:12.899Z,101634.78
2019-01-15T10:30:48.727Z,101624.58
2019-01-15T10:33:24.360Z,101627.95
2019-01-15T10:35:53.324Z,101625.63
2019-01-15T10:38:22.739Z,101631.70
2019-01-15T10:40:51.546Z,101631.95
2019-01-15T10:43:20.369Z,101629.41
2019-01-15T10:45:49.144Z,101630.58
2019-01-15T10:48:17.950Z,101628.49
2019-01-15T10:50:46.760Z,101628.14
2019-01-15T10:53:15.552Z,101621.30
2019-01-15T10:55:44.371Z,101620.39
2019-01-15T10:58:17.533Z,101628.42
2019-01-15T11:00:42.021Z,101624.28
2019-01-15T11:03:10.834Z,101624.81
2019-01-15T11:05:39.924Z,101619.38
2019-01-15T11:08:08.775Z,101628.28
2019-01-15T11:10:37.549Z,101624.03
2019-01-15T11:13:06.342Z,101616.94
2019-01-15T11:15:35.136Z,101619.41
2019-01-15T11:18:04.079Z,101613.72
2019-01-15T11:20:32.883Z,101610.63
2019-01-15T11:23:01.701Z,101605.22
2019-01-15T11:25:30.546Z,101611.14
2019-01-15T11:27:59.340Z,101613.45
2019-01-15T11:30:28.142Z,101604.95
2019-01-15T11:32:57.624Z,101606.75
2019-01-15T11:35:27.243Z,101605.07
2019-01-15T11:37:57.886Z,101606.13
2019-01-15T11:40:26.652Z,101601.22
2019-01-15T11:42:55.471Z,101602.87
2019-01-15T11:45:24.240Z,101588.07
2019-01-15T11:47:53.027Z,101597.59
2019-01-15T11:50:21.885Z,101578.63
2019-01-15T11:52:50.704Z,101579.91
2019-01-15T11:55:21.193Z,101582.51
2019-01-15T11:57:48.319Z,101572.83
2019-01-15T12:00:23.788Z,101572.44
2019-01-15T12:02:58.807Z,101572.31
2019-01-15T12:05:33.053Z,101567.67
2019-01-15T12:08:07.331Z,101563.17
2019-01-15T12:10:44.260Z,101554.12
2019-01-15T12:14:16.210Z,101564.85
2019-01-15T12:17:49.850Z,101552.33
2019-01-15T12:20:24.079Z,101541.24
2019-01-15T12:23:00.962Z,101540.47
2019-01-15T12:25:33.924Z,101548.70
2019-01-15T12:28:08.899Z,101542.51
2019-01-15T12:31:41.447Z,101539.41
2019-01-15T12:34:15.419Z,101542.52
2019-01-15T12:36:49.479Z,101544.08
2019-01-15T12:39:23.602Z,101540.21
2019-01-15T12:41:56.551Z,101532.73
2019-01-15T12:45:37.100Z,101530.63
2019-01-15T12:48:11.350Z,101535.17
2019-01-15T12:50:45.426Z,101529.08
2019-01-15T12:53:19.706Z,101527.80
2019-01-15T12:55:53.648Z,101530.11
2019-01-15T12:58:59.074Z,101519.92
2019-01-15T13:03:36.532Z,101529.59
2019-01-15T13:06:13.520Z,101517.70
2019-01-15T13:08:47.637Z,101511.37
2019-01-15T13:11:32.961Z,101519.53
2019-01-15T13:14:13.981Z,101515.91
2019-01-15T13:16:47.946Z,101514.13
2019-01-15T13:19:22.139Z,101518.48
2019-01-15T13:21:57.077Z,101510.75
2019-01-15T13:24:31.156Z,101513.85
2019-01-15T13:28:03.147Z,101509.08
2019-01-15T13:31:34.782Z,101514.09
2019-01-15T13:34:09.704Z,101503.28
2019-01-15T13:36:43.663Z,101509.98
2019-01-15T13:39:17.639Z,101497.08
2019-01-15T13:41:53.598Z,101501.99
2019-01-15T13:44:43.306Z,101498.23
2019-01-15T13:47:16.048Z,101507.41
2019-01-15T13:49:50.920Z,101497.84
2019-01-15T13:52:28.770Z,101496.66
2019-01-15T13:55:04.630Z,101498.58
2019-01-15T13:59:42.223Z,101501.30
2019-01-15T14:02:16.109Z,101494.08
2019-01-15T14:04:50.302Z,101496.25
2019-01-15T14:07:25.975Z,101491.09
2019-01-15T14:09:58.991Z,101493.17
2019-01-15T14:12:39.057Z,101488.53
2019-01-15T14:15:18.839Z,101492.13
2019-01-15T14:17:53.680Z,101491.50
2019-01-15T14:20:27.880Z,101490.59
2019-01-15T14:23:02.730Z,101493.17
2019-01-15T14:25:36.783Z,101494.70
2019-01-15T14:29:10.888Z,101488.02
2019-01-15T14:31:50.893Z,101480.52
2019-01-15T14:36:28.708Z,101486.20
2019-01-15T14:39:02.632Z,101479.12
2019-01-15T14:43:43.434Z,101482.47
2019-01-15T14:48:25.379Z,101484.63
2019-01-15T14:51:02.374Z,101480.52
2019-01-15T14:53:36.196Z,101482.08
2019-01-15T14:56:10.268Z,101481.84
2019-01-15T14:59:48.012Z,101480.80
2019-01-15T15:02:25.943Z,101475.91
2019-01-15T15:07:02.896Z,101473.19
2019-01-15T15:09:38.871Z,101465.59
2019-01-15T15:14:19.773Z,101465.20
2019-01-15T15:17:57.750Z,101455.41
2019-01-15T15:20:33.182Z,101460.21
2019-01-15T15:23:07.943Z,101460.84
2019-01-15T15:25:41.776Z,101454.80
2019-01-15T15:29:14.579Z,101458.40
2019-01-15T15:31:48.796Z,101460.20
2019-01-15T15:34:30.671Z,101461.11
2019-01-15T15:37:12.559Z,101459.69
2019-01-15T15:39:51.638Z,101464.46
2019-01-15T15:42:57.023Z,101460.48
2019-01-15T15:45:37.084Z,101464.59
2019-01-15T15:48:11.355Z,101462.82
2019-01-15T15:50:45.518Z,101459.72
2019-01-15T15:54:18.224Z,101457.80
2019-01-15T15:56:52.520Z,101461.00
2019-01-15T15:59:25.524Z,101465.14
2019-01-15T16:04:05.163Z,101462.81
2019-01-15T16:06:40.077Z,101466.95
2019-01-15T16:09:16.695Z,101460.50
2019-01-15T16:11:52.956Z,101465.66
2019-01-15T16:14:29.785Z,101465.94
2019-01-15T16:17:16.517Z,101461.55
2019-01-15T16:20:03.128Z,101461.55
2019-01-15T16:22:38.662Z,101461.92
2019-01-15T16:25:16.424Z,101461.92
2019-01-15T16:28:55.098Z,101459.73
2019-01-15T16:32:35.262Z,101453.66
2019-01-15T16:35:08.852Z,101449.55
2019-01-15T16:39:45.445Z,101449.16
2019-01-15T16:42:21.974Z,101450.73
2019-01-15T16:44:54.993Z,101454.45
2019-01-15T16:47:27.959Z,101455.75
2019-01-15T16:50:36.454Z,101447.10
2019-01-15T16:53:18.455Z,101453.31
2019-01-15T16:55:56.288Z,101455.89
2019-01-15T16:58:30.410Z,101458.84
2019-01-15T17:01:05.260Z,101453.69
2019-01-15T17:03:41.258Z,101459.38
2019-01-15T17:06:16.204Z,101463.73
2019-01-15T17:08:54.044Z,101459.63
2019-01-15T17:11:27.511Z,101463.59
2019-01-15T17:14:01.645Z,101464.27
2019-01-15T17:18:43.808Z,101458.20
2019-01-15T17:21:20.767Z,101461.82
2019-01-15T17:23:55.703Z,101452.80
2019-01-15T17:26:29.543Z,101454.47
2019-01-15T17:29:11.614Z,101455.38
2019-01-15T17:31:50.639Z,101450.59
2019-01-15T17:34:29.521Z,101453.66
2019-01-15T17:37:02.471Z,101450.70
2019-01-15T17:39:37.471Z,101455.38
2019-01-15T17:42:11.734Z,101444.91
2019-01-15T17:44:44.704Z,101441.30
2019-01-15T17:47:18.493Z,101448.51
2019-01-15T17:49:54.524Z,101449.80
2019-01-15T17:52:32.411Z,101449.41
2019-01-15T17:55:06.576Z,101445.30
2019-01-15T17:57:41.547Z,101447.61
2019-01-15T18:00:26.635Z,101441.92
2019-01-15T18:02:59.631Z,101437.56
2019-01-15T18:05:33.807Z,101441.92
2019-01-15T18:08:11.828Z,101432.27
2019-01-15T18:10:45.931Z,101440.91
2019-01-15T18:13:20.902Z,101430.34
2019-01-15T18:15:57.845Z,101429.44
2019-01-15T18:18:32.848Z,101431.11
2019-01-15T18:21:12.930Z,101435.50
2019-01-15T18:25:52.727Z,101432.55
2019-01-15T18:30:33.400Z,101434.59
2019-01-15T18:35:12.233Z,101437.85
2019-01-15T18:37:49.181Z,101439.12
2019-01-15T18:40:26.055Z,101436.03
2019-01-15T18:44:03.019Z,101433.21
2019-01-15T18:46:40.914Z,101441.58
2019-01-15T18:49:19.964Z,101437.85
2019-01-15T18:51:54.175Z,101434.62
2019-01-15T18:55:31.098Z,101443.75
2019-01-15T18:58:05.375Z,101438.10
2019-01-15T19:01:11.747Z,101436.16
2019-01-15T19:05:50.811Z,101431.91
2019-01-15T19:08:24.815Z,101435.63
2019-01-15T19:11:01.606Z,101433.44
2019-01-15T19:13:37.586Z,101435.01
2019-01-15T19:16:18.588Z,101424.70
2019-01-15T19:18:52.811Z,101430.86
2019-01-15T19:21:27.745Z,101428.81
2019-01-15T19:24:08.800Z,101424.80
2019-01-15T19:26:43.003Z,101423.23
2019-01-15T19:29:16.815Z,101418.84
2019-01-15T19:31:54.924Z,101430.59
2019-01-15T19:34:36.915Z,101428.54
2019-01-15T19:37:10.078Z,101428.54
2019-01-15T19:39:44.068Z,101432.41
2019-01-15T19:42:18.205Z,101428.16
2019-01-15T19:44:57.176Z,101424.39
2019-01-15T19:47:33.119Z,101429.03
2019-01-15T19:51:07.924Z,101425.30
2019-01-15T19:53:46.847Z,101421.29
2019-01-15T19:56:20.823Z,101427.73
2019-01-15T20:00:58.647Z,101420.42
2019-01-15T20:03:47.891Z,101421.05
2019-01-15T20:06:26.072Z,101426.20
2019-01-15T20:08:59.032Z,101421.84
2019-01-15T20:12:03.364Z,101414.59
2019-01-15T20:15:34.920Z,101416.80
2019-01-15T20:18:15.813Z,101424.42
2019-01-15T20:21:03.952Z,101421.19
2019-01-15T20:23:39.787Z,101416.80
2019-01-15T20:26:14.072Z,101423.10
2019-01-15T20:28:54.995Z,101419.76
2019-01-15T20:31:37.124Z,101416.80
2019-01-15T20:36:14.165Z,101416.91
2019-01-15T20:38:51.213Z,101412.78
2019-01-15T20:41:29.259Z,101413.45
2019-01-15T20:44:11.215Z,101420.80
2019-01-15T20:46:45.373Z,101418.85
2019-01-15T20:49:20.303Z,101422.45
2019-01-15T20:51:53.268Z,101418.96
2019-01-15T20:54:26.246Z,101411.22
2019-01-15T20:57:59.888Z,101414.43
2019-01-15T21:00:34.881Z,101421.16
2019-01-15T21:03:08.942Z,101413.80
2019-01-15T21:05:42.932Z,101416.10
2019-01-15T21:08:17.291Z,101412.52
2019-01-15T21:10:50.250Z,101409.16
2019-01-15T21:13:28.143Z,101413.80
2019-01-15T21:16:01.965Z,101408.39
2019-01-15T21:18:39.961Z,101410.42
2019-01-15T21:23:20.623Z,101405.02
2019-01-15T21:25:56.919Z,101402.61
2019-01-15T21:28:36.098Z,101397.83
2019-01-15T21:31:13.964Z,101391.48
2019-01-15T21:33:48.195Z,101395.11
2019-01-15T21:36:26.005Z,101396.27
2019-01-15T21:39:59.762Z,101392.02
2019-01-15T21:43:34.506Z,101388.14
2019-01-15T21:46:11.608Z,101378.27
2019-01-15T21:49:49.235Z,101380.65
2019-01-15T21:53:23.165Z,101371.14
2019-01-15T21:55:58.040Z,101372.28
2019-01-15T21:58:31.047Z,101368.94
2019-01-15T22:02:04.060Z,101372.04
2019-01-15T22:04:38.248Z,101369.70
2019-01-15T22:07:11.259Z,101363.78
2019-01-15T22:09:46.244Z,101360.67
2019-01-15T22:12:25.201Z,101357.09
2019-01-15T22:15:05.774Z,101353.46
2019-01-15T22:17:39.691Z,101358.90
2019-01-15T22:20:22.071Z,101351.93
2019-01-15T22:22:56.289Z,101351.89
2019-01-15T22:25:30.381Z,101347.26
2019-01-15T22:28:03.347Z,101340.81
2019-01-15T22:30:43.316Z,101345.20
2019-01-15T22:33:20.287Z,101340.81
2019-01-15T22:35:59.313Z,101339.14
2019-01-15T22:38:35.118Z,101334.11
2019-01-15T22:41:09.295Z,101327.91
2019-01-15T22:43:45.215Z,101333.07
2019-01-15T22:46:19.111Z,101325.23
2019-01-15T22:48:52.075Z,101322.52
2019-01-15T22:51:26.324Z,101315.44
2019-01-15T22:54:00.347Z,101317.11
2019-01-15T22:56:35.205Z,101311.71
2019-01-15T22:59:09.366Z,101307.70
2019-01-15T23:02:43.268Z,101302.69
2019-01-15T23:05:17.460Z,101302.45
2019-01-15T23:07:57.355Z,101297.95
2019-01-15T23:10:31.178Z,101297.81
2019-01-15T23:13:05.114Z,101299.91
2019-01-15T23:15:39.332Z,101294.75
2019-01-15T23:18:16.246Z,101291.65
2019-01-15T23:20:57.262Z,101294.33
2019-01-15T23:23:45.309Z,101286.73
2019-01-15T23:27:16.934Z,101283.39
2019-01-15T23:29:50.827Z,101284.68
2019-01-15T23:34:28.259Z,101289.21
2019-01-15T23:37:32.698Z,101271.30
2019-01-15T23:40:06.948Z,101280.84
2019-01-15T23:42:39.947Z,101276.84
2019-01-15T23:45:14.732Z,101277.75
2019-01-15T23:47:48.782Z,101271.69
2019-01-15T23:50:23.775Z,101270.13
2019-01-15T23:52:57.631Z,101267.16
2019-01-15T23:55:31.652Z,101262.52
2019-01-15T23:58:05.837Z,101258.80
